Terminal Aerodrome Forecast
Issued by NWS Jackson, KY

Home | Current Version | Previous Version | Text Only | Print | Product List | Glossary On
Versions: 1 2 3 4 5 6 7 8 9 10 11 12 13 14 15 16 17
000
FTUS43 KJKL 250500
TAFLOZ
TAF
KLOZ 250538Z 2506/2606 16004KT P6SM BKN080 BKN250 WS013/19035KT
     FM250900 18007KT 6SM -SHRA BR VCTS BKN035CB OVC100
     FM251200 23011G20KT P6SM VCSH FEW010 BKN035 BKN120
     FM251700 26014KT P6SM OVC035
     FM252000 29012KT P6SM FEW250=

USA.gov is the U.S. government's official web portal to all federal, state and local government web resources and services.